sensor_id;sensor_type;location;lat;lon;timestamp;temperature;humidity
47861;HTU21D;33620;52.340;5.984;2023-08-31T00:02:01;13.45;83.90
47861;HTU21D;33620;52.340;5.984;2023-08-31T00:04:26;13.44;83.88
47861;HTU21D;33620;52.340;5.984;2023-08-31T00:06:52;13.44;83.84
47861;HTU21D;33620;52.340;5.984;2023-08-31T00:09:17;13.41;83.94
47861;HTU21D;33620;52.340;5.984;2023-08-31T00:11:44;13.35;84.05
47861;HTU21D;33620;52.340;5.984;2023-08-31T00:14:09;13.31;84.74
47861;HTU21D;33620;52.340;5.984;2023-08-31T00:16:35;13.31;84.42
47861;HTU21D;33620;52.340;5.984;2023-08-31T00:19:02;13.27;84.49
47861;HTU21D;33620;52.340;5.984;2023-08-31T00:21:27;13.21;84.73
47861;HTU21D;33620;52.340;5.984;2023-08-31T00:23:53;13.19;85.24
47861;HTU21D;33620;52.340;5.984;2023-08-31T00:26:19;13.19;84.77
47861;HTU21D;33620;52.340;5.984;2023-08-31T00:28:45;13.09;85.16
47861;HTU21D;33620;52.340;5.984;2023-08-31T00:31:10;13.10;85.64
47861;HTU21D;33620;52.340;5.984;2023-08-31T00:33:38;13.12;85.14
47861;HTU21D;33620;52.340;5.984;2023-08-31T00:36:04;13.10;85.26
47861;HTU21D;33620;52.340;5.984;2023-08-31T00:38:32;13.08;85.29
47861;HTU21D;33620;52.340;5.984;2023-08-31T00:40:57;13.09;85.42
47861;HTU21D;33620;52.340;5.984;2023-08-31T00:43:23;13.12;85.23
47861;HTU21D;33620;52.340;5.984;2023-08-31T00:45:51;13.12;85.35
47861;HTU21D;33620;52.340;5.984;2023-08-31T00:48:18;13.16;85.63
47861;HTU21D;33620;52.340;5.984;2023-08-31T00:50:45;13.20;85.71
47861;HTU21D;33620;52.340;5.984;2023-08-31T00:53:10;13.18;85.79
47861;HTU21D;33620;52.340;5.984;2023-08-31T00:55:36;13.21;86.22
47861;HTU21D;33620;52.340;5.984;2023-08-31T00:58:01;13.23;86.45
47861;HTU21D;33620;52.340;5.984;2023-08-31T01:00:36;13.22;86.55
47861;HTU21D;33620;52.340;5.984;2023-08-31T01:03:12;13.22;86.64
47861;HTU21D;33620;52.340;5.984;2023-08-31T01:05:41;13.25;86.68
47861;HTU21D;33620;52.340;5.984;2023-08-31T01:11:24;13.29;86.87
47861;HTU21D;33620;52.340;5.984;2023-08-31T01:14:01;13.23;87.18
47861;HTU21D;33620;52.340;5.984;2023-08-31T01:16:32;13.15;87.89
47861;HTU21D;33620;52.340;5.984;2023-08-31T01:19:00;13.16;88.12
47861;HTU21D;33620;52.340;5.984;2023-08-31T01:21:32;13.15;88.15
47861;HTU21D;33620;52.340;5.984;2023-08-31T01:24:01;13.12;88.52
47861;HTU21D;33620;52.340;5.984;2023-08-31T01:26:27;13.10;88.91
47861;HTU21D;33620;52.340;5.984;2023-08-31T01:28:54;13.14;89.06
47861;HTU21D;33620;52.340;5.984;2023-08-31T01:31:20;13.12;88.90
47861;HTU21D;33620;52.340;5.984;2023-08-31T01:33:45;13.12;88.96
47861;HTU21D;33620;52.340;5.984;2023-08-31T01:36:27;13.10;89.25
47861;HTU21D;33620;52.340;5.984;2023-08-31T01:39:57;13.08;89.94
47861;HTU21D;33620;52.340;5.984;2023-08-31T01:42:06;13.12;89.98
47861;HTU21D;33620;52.340;5.984;2023-08-31T01:44:33;13.10;89.83
47861;HTU21D;33620;52.340;5.984;2023-08-31T01:47:04;13.08;89.73
47861;HTU21D;33620;52.340;5.984;2023-08-31T01:49:39;13.12;89.90
47861;HTU21D;33620;52.340;5.984;2023-08-31T01:52:06;13.12;89.51
47861;HTU21D;33620;52.340;5.984;2023-08-31T01:54:32;13.12;89.48
47861;HTU21D;33620;52.340;5.984;2023-08-31T01:56:57;13.08;89.24
47861;HTU21D;33620;52.340;5.984;2023-08-31T01:59:23;13.05;89.49
47861;HTU21D;33620;52.340;5.984;2023-08-31T02:01:48;13.03;89.45
47861;HTU21D;33620;52.340;5.984;2023-08-31T02:04:14;12.99;89.49
47861;HTU21D;33620;52.340;5.984;2023-08-31T02:06:39;12.93;89.68
47861;HTU21D;33620;52.340;5.984;2023-08-31T02:09:05;12.92;89.92
47861;HTU21D;33620;52.340;5.984;2023-08-31T02:11:31;12.90;89.84
47861;HTU21D;33620;52.340;5.984;2023-08-31T02:13:57;12.90;90.03
47861;HTU21D;33620;52.340;5.984;2023-08-31T02:16:23;12.91;89.83
47861;HTU21D;33620;52.340;5.984;2023-08-31T02:18:48;12.92;89.77
47861;HTU21D;33620;52.340;5.984;2023-08-31T02:21:13;12.91;89.54
47861;HTU21D;33620;52.340;5.984;2023-08-31T02:23:39;12.93;89.48
47861;HTU21D;33620;52.340;5.984;2023-08-31T02:26:04;12.92;89.28
47861;HTU21D;33620;52.340;5.984;2023-08-31T02:28:30;12.91;89.48
47861;HTU21D;33620;52.340;5.984;2023-08-31T02:31:02;12.92;89.46
47861;HTU21D;33620;52.340;5.984;2023-08-31T02:33:27;12.93;89.51
47861;HTU21D;33620;52.340;5.984;2023-08-31T02:35:54;12.93;89.47
47861;HTU21D;33620;52.340;5.984;2023-08-31T02:38:20;12.96;89.28
47861;HTU21D;33620;52.340;5.984;2023-08-31T02:40:49;12.96;89.21
47861;HTU21D;33620;52.340;5.984;2023-08-31T02:43:15;12.95;89.05
47861;HTU21D;33620;52.340;5.984;2023-08-31T02:45:40;12.97;88.97
47861;HTU21D;33620;52.340;5.984;2023-08-31T02:48:10;12.97;89.01
47861;HTU21D;33620;52.340;5.984;2023-08-31T02:50:35;12.97;88.90
47861;HTU21D;33620;52.340;5.984;2023-08-31T02:53:01;12.99;88.82
47861;HTU21D;33620;52.340;5.984;2023-08-31T02:55:26;12.97;88.61
47861;HTU21D;33620;52.340;5.984;2023-08-31T02:57:53;12.95;88.75
47861;HTU21D;33620;52.340;5.984;2023-08-31T03:00:18;12.95;88.80
47861;HTU21D;33620;52.340;5.984;2023-08-31T03:02:47;12.93;88.90
47861;HTU21D;33620;52.340;5.984;2023-08-31T03:05:13;12.91;88.87
47861;HTU21D;33620;52.340;5.984;2023-08-31T03:07:38;12.89;88.96
47861;HTU21D;33620;52.340;5.984;2023-08-31T03:10:04;12.85;89.38
47861;HTU21D;33620;52.340;5.984;2023-08-31T03:12:30;12.82;89.31
47861;HTU21D;33620;52.340;5.984;2023-08-31T03:14:55;12.78;89.70
47861;HTU21D;33620;52.340;5.984;2023-08-31T03:17:20;12.81;89.83
47861;HTU21D;33620;52.340;5.984;2023-08-31T03:19:46;12.79;89.61
47861;HTU21D;33620;52.340;5.984;2023-08-31T03:22:11;12.79;89.74
47861;HTU21D;33620;52.340;5.984;2023-08-31T03:24:37;12.77;89.58
47861;HTU21D;33620;52.340;5.984;2023-08-31T03:27:02;12.76;89.70
47861;HTU21D;33620;52.340;5.984;2023-08-31T03:29:28;12.75;89.61
47861;HTU21D;33620;52.340;5.984;2023-08-31T03:31:54;12.73;90.05
47861;HTU21D;33620;52.340;5.984;2023-08-31T03:34:20;12.71;89.95
47861;HTU21D;33620;52.340;5.984;2023-08-31T03:36:45;12.74;90.07
47861;HTU21D;33620;52.340;5.984;2023-08-31T03:39:11;12.76;89.88
47861;HTU21D;33620;52.340;5.984;2023-08-31T03:41:36;12.77;89.92
47861;HTU21D;33620;52.340;5.984;2023-08-31T03:44:01;12.79;89.92
47861;HTU21D;33620;52.340;5.984;2023-08-31T03:46:27;12.79;89.76
47861;HTU21D;33620;52.340;5.984;2023-08-31T03:48:52;12.80;89.97
47861;HTU21D;33620;52.340;5.984;2023-08-31T03:51:18;12.78;90.15
47861;HTU21D;33620;52.340;5.984;2023-08-31T03:53:43;12.78;90.60
47861;HTU21D;33620;52.340;5.984;2023-08-31T03:56:09;12.81;90.47
47861;HTU21D;33620;52.340;5.984;2023-08-31T03:58:34;12.84;90.23
47861;HTU21D;33620;52.340;5.984;2023-08-31T04:01:00;12.79;90.45
47861;HTU21D;33620;52.340;5.984;2023-08-31T04:03:25;12.80;90.33
47861;HTU21D;33620;52.340;5.984;2023-08-31T04:05:55;12.78;90.59
47861;HTU21D;33620;52.340;5.984;2023-08-31T04:08:20;12.77;90.61
47861;HTU21D;33620;52.340;5.984;2023-08-31T04:10:46;12.76;91.11
47861;HTU21D;33620;52.340;5.984;2023-08-31T04:13:11;12.80;91.10
47861;HTU21D;33620;52.340;5.984;2023-08-31T04:15:36;12.81;91.01
47861;HTU21D;33620;52.340;5.984;2023-08-31T04:18:02;12.80;91.14
47861;HTU21D;33620;52.340;5.984;2023-08-31T04:20:27;12.78;91.27
47861;HTU21D;33620;52.340;5.984;2023-08-31T04:22:53;12.82;91.34
47861;HTU21D;33620;52.340;5.984;2023-08-31T04:25:18;12.82;91.26
47861;HTU21D;33620;52.340;5.984;2023-08-31T04:27:44;12.82;91.36
47861;HTU21D;33620;52.340;5.984;2023-08-31T04:30:11;12.85;91.30
47861;HTU21D;33620;52.340;5.984;2023-08-31T04:32:37;12.84;91.16
47861;HTU21D;33620;52.340;5.984;2023-08-31T04:35:03;12.84;91.51
47861;HTU21D;33620;52.340;5.984;2023-08-31T04:37:31;12.87;91.47
47861;HTU21D;33620;52.340;5.984;2023-08-31T04:39:56;12.89;91.37
47861;HTU21D;33620;52.340;5.984;2023-08-31T04:42:23;12.89;91.11
47861;HTU21D;33620;52.340;5.984;2023-08-31T04:44:49;12.90;91.20
47861;HTU21D;33620;52.340;5.984;2023-08-31T04:47:14;12.90;91.13
47861;HTU21D;33620;52.340;5.984;2023-08-31T04:49:40;12.92;91.02
47861;HTU21D;33620;52.340;5.984;2023-08-31T04:52:05;12.89;90.95
47861;HTU21D;33620;52.340;5.984;2023-08-31T04:54:31;12.89;90.97
47861;HTU21D;33620;52.340;5.984;2023-08-31T04:56:56;12.89;90.82
47861;HTU21D;33620;52.340;5.984;2023-08-31T04:59:21;12.87;90.90
47861;HTU21D;33620;52.340;5.984;2023-08-31T05:01:47;12.88;90.96
47861;HTU21D;33620;52.340;5.984;2023-08-31T05:04:12;12.88;90.95
47861;HTU21D;33620;52.340;5.984;2023-08-31T05:06:37;12.88;90.76
47861;HTU21D;33620;52.340;5.984;2023-08-31T05:09:03;12.86;90.98
47861;HTU21D;33620;52.340;5.984;2023-08-31T05:11:29;12.88;90.98
47861;HTU21D;33620;52.340;5.984;2023-08-31T05:13:55;12.87;91.30
47861;HTU21D;33620;52.340;5.984;2023-08-31T05:16:20;12.91;91.29
47861;HTU21D;33620;52.340;5.984;2023-08-31T05:18:46;12.91;91.43
47861;HTU21D;33620;52.340;5.984;2023-08-31T05:21:11;12.92;91.19
47861;HTU21D;33620;52.340;5.984;2023-08-31T05:23:36;12.92;91.39
47861;HTU21D;33620;52.340;5.984;2023-08-31T05:26:02;12.92;91.43
47861;HTU21D;33620;52.340;5.984;2023-08-31T05:28:28;12.90;91.76
47861;HTU21D;33620;52.340;5.984;2023-08-31T05:30:55;12.91;91.93
47861;HTU21D;33620;52.340;5.984;2023-08-31T05:33:21;12.93;92.03
47861;HTU21D;33620;52.340;5.984;2023-08-31T05:35:52;12.93;92.18
47861;HTU21D;33620;52.340;5.984;2023-08-31T05:38:18;12.94;92.37
47861;HTU21D;33620;52.340;5.984;2023-08-31T05:40:43;12.97;92.48
47861;HTU21D;33620;52.340;5.984;2023-08-31T05:43:14;13.00;92.57
47861;HTU21D;33620;52.340;5.984;2023-08-31T05:45:40;13.04;92.75
47861;HTU21D;33620;52.340;5.984;2023-08-31T05:48:05;13.08;92.83
47861;HTU21D;33620;52.340;5.984;2023-08-31T05:50:31;13.12;93.04
47861;HTU21D;33620;52.340;5.984;2023-08-31T05:52:57;13.16;93.13
47861;HTU21D;33620;52.340;5.984;2023-08-31T05:55:22;13.17;92.97
47861;HTU21D;33620;52.340;5.984;2023-08-31T05:57:48;13.20;93.21
47861;HTU21D;33620;52.340;5.984;2023-08-31T06:00:13;13.22;92.96
47861;HTU21D;33620;52.340;5.984;2023-08-31T06:02:39;13.23;93.13
47861;HTU21D;33620;52.340;5.984;2023-08-31T06:05:05;13.29;93.11
47861;HTU21D;33620;52.340;5.984;2023-08-31T06:07:31;13.34;92.98
47861;HTU21D;33620;52.340;5.984;2023-08-31T06:09:57;13.37;92.92
47861;HTU21D;33620;52.340;5.984;2023-08-31T06:12:22;13.39;92.94
47861;HTU21D;33620;52.340;5.984;2023-08-31T06:14:48;13.39;92.66
47861;HTU21D;33620;52.340;5.984;2023-08-31T06:17:13;13.40;92.91
47861;HTU21D;33620;52.340;5.984;2023-08-31T06:19:40;13.43;92.74
47861;HTU21D;33620;52.340;5.984;2023-08-31T06:22:06;13.45;92.81
47861;HTU21D;33620;52.340;5.984;2023-08-31T06:24:32;13.48;93.08
47861;HTU21D;33620;52.340;5.984;2023-08-31T06:26:58;13.53;92.98
47861;HTU21D;33620;52.340;5.984;2023-08-31T06:29:23;13.56;92.74
47861;HTU21D;33620;52.340;5.984;2023-08-31T06:31:49;13.59;92.77
47861;HTU21D;33620;52.340;5.984;2023-08-31T06:34:14;13.63;92.88
47861;HTU21D;33620;52.340;5.984;2023-08-31T06:36:40;13.71;92.93
47861;HTU21D;33620;52.340;5.984;2023-08-31T06:39:06;13.75;92.72
47861;HTU21D;33620;52.340;5.984;2023-08-31T06:41:31;13.81;92.78
47861;HTU21D;33620;52.340;5.984;2023-08-31T06:43:57;13.85;92.73
47861;HTU21D;33620;52.340;5.984;2023-08-31T06:46:22;13.90;92.71
47861;HTU21D;33620;52.340;5.984;2023-08-31T06:48:48;13.90;92.05
47861;HTU21D;33620;52.340;5.984;2023-08-31T06:51:14;13.86;91.59
47861;HTU21D;33620;52.340;5.984;2023-08-31T06:53:41;13.85;91.69
47861;HTU21D;33620;52.340;5.984;2023-08-31T06:56:06;13.83;91.69
47861;HTU21D;33620;52.340;5.984;2023-08-31T06:58:32;13.81;91.85
47861;HTU21D;33620;52.340;5.984;2023-08-31T07:00:57;13.79;91.98
47861;HTU21D;33620;52.340;5.984;2023-08-31T07:03:23;13.80;92.34
47861;HTU21D;33620;52.340;5.984;2023-08-31T07:05:49;13.79;92.46
47861;HTU21D;33620;52.340;5.984;2023-08-31T07:08:14;13.78;92.66
47861;HTU21D;33620;52.340;5.984;2023-08-31T07:10:39;13.78;92.63
47861;HTU21D;33620;52.340;5.984;2023-08-31T07:13:05;13.78;93.09
47861;HTU21D;33620;52.340;5.984;2023-08-31T07:15:30;13.83;93.12
47861;HTU21D;33620;52.340;5.984;2023-08-31T07:17:56;13.82;93.16
47861;HTU21D;33620;52.340;5.984;2023-08-31T07:20:21;13.85;93.38
47861;HTU21D;33620;52.340;5.984;2023-08-31T07:22:46;13.88;93.31
47861;HTU21D;33620;52.340;5.984;2023-08-31T07:25:12;13.93;93.21
47861;HTU21D;33620;52.340;5.984;2023-08-31T07:27:37;13.97;93.08
47861;HTU21D;33620;52.340;5.984;2023-08-31T07:30:04;13.93;92.56
47861;HTU21D;33620;52.340;5.984;2023-08-31T07:32:31;13.91;92.56
47861;HTU21D;33620;52.340;5.984;2023-08-31T07:34:56;13.97;92.80
47861;HTU21D;33620;52.340;5.984;2023-08-31T07:37:22;14.03;92.98
47861;HTU21D;33620;52.340;5.984;2023-08-31T07:39:47;14.06;93.07
47861;HTU21D;33620;52.340;5.984;2023-08-31T07:42:12;14.10;93.06
47861;HTU21D;33620;52.340;5.984;2023-08-31T07:44:38;14.14;93.27
47861;HTU21D;33620;52.340;5.984;2023-08-31T07:47:03;14.24;93.33
47861;HTU21D;33620;52.340;5.984;2023-08-31T07:49:29;14.30;93.24
47861;HTU21D;33620;52.340;5.984;2023-08-31T07:51:54;14.38;93.18
47861;HTU21D;33620;52.340;5.984;2023-08-31T07:54:20;14.39;92.62
47861;HTU21D;33620;52.340;5.984;2023-08-31T07:56:46;14.50;92.98
47861;HTU21D;33620;52.340;5.984;2023-08-31T07:59:11;14.58;93.42
47861;HTU21D;33620;52.340;5.984;2023-08-31T08:01:37;14.67;93.54
47861;HTU21D;33620;52.340;5.984;2023-08-31T08:04:02;14.77;93.55
47861;HTU21D;33620;52.340;5.984;2023-08-31T08:06:28;14.84;93.41
47861;HTU21D;33620;52.340;5.984;2023-08-31T08:08:53;14.86;92.75
47861;HTU21D;33620;52.340;5.984;2023-08-31T08:11:19;14.91;92.09
47861;HTU21D;33620;52.340;5.984;2023-08-31T08:13:44;15.04;92.33
47861;HTU21D;33620;52.340;5.984;2023-08-31T08:16:10;15.13;92.33
47861;HTU21D;33620;52.340;5.984;2023-08-31T08:18:35;15.22;91.86
47861;HTU21D;33620;52.340;5.984;2023-08-31T08:21:00;15.24;90.93
47861;HTU21D;33620;52.340;5.984;2023-08-31T08:23:26;15.31;90.71
47861;HTU21D;33620;52.340;5.984;2023-08-31T08:25:51;15.39;90.45
47861;HTU21D;33620;52.340;5.984;2023-08-31T08:28:16;15.49;90.57
47861;HTU21D;33620;52.340;5.984;2023-08-31T08:30:42;15.60;90.13
47861;HTU21D;33620;52.340;5.984;2023-08-31T08:33:08;15.56;88.57
47861;HTU21D;33620;52.340;5.984;2023-08-31T08:35:34;15.61;89.36
47861;HTU21D;33620;52.340;5.984;2023-08-31T08:37:59;15.62;89.48
47861;HTU21D;33620;52.340;5.984;2023-08-31T08:40:25;15.66;89.60
47861;HTU21D;33620;52.340;5.984;2023-08-31T08:42:53;15.66;89.79
47861;HTU21D;33620;52.340;5.984;2023-08-31T08:45:19;15.60;89.59
47861;HTU21D;33620;52.340;5.984;2023-08-31T08:47:46;15.57;90.00
47861;HTU21D;33620;52.340;5.984;2023-08-31T08:50:12;15.59;90.31
47861;HTU21D;33620;52.340;5.984;2023-08-31T08:52:40;15.56;90.24
47861;HTU21D;33620;52.340;5.984;2023-08-31T08:55:08;15.58;90.29
47861;HTU21D;33620;52.340;5.984;2023-08-31T08:57:34;15.65;90.73
47861;HTU21D;33620;52.340;5.984;2023-08-31T09:00:00;15.71;90.53
47861;HTU21D;33620;52.340;5.984;2023-08-31T09:02:25;15.75;90.15
47861;HTU21D;33620;52.340;5.984;2023-08-31T09:04:51;15.75;89.18
47861;HTU21D;33620;52.340;5.984;2023-08-31T09:07:20;15.83;89.34
47861;HTU21D;33620;52.340;5.984;2023-08-31T09:09:51;15.95;89.62
47861;HTU21D;33620;52.340;5.984;2023-08-31T09:12:17;16.02;89.20
47861;HTU21D;33620;52.340;5.984;2023-08-31T09:14:42;16.03;87.33
47861;HTU21D;33620;52.340;5.984;2023-08-31T09:17:08;16.12;87.81
47861;HTU21D;33620;52.340;5.984;2023-08-31T09:19:34;16.25;87.67
47861;HTU21D;33620;52.340;5.984;2023-08-31T09:22:00;16.46;88.30
47861;HTU21D;33620;52.340;5.984;2023-08-31T09:24:25;16.58;84.96
47861;HTU21D;33620;52.340;5.984;2023-08-31T09:26:56;16.48;84.77
47861;HTU21D;33620;52.340;5.984;2023-08-31T09:29:21;16.55;85.67
47861;HTU21D;33620;52.340;5.984;2023-08-31T09:31:47;16.50;85.69
47861;HTU21D;33620;52.340;5.984;2023-08-31T09:34:14;16.35;85.10
47861;HTU21D;33620;52.340;5.984;2023-08-31T09:36:40;16.16;84.97
47861;HTU21D;33620;52.340;5.984;2023-08-31T09:39:05;16.12;86.29
47861;HTU21D;33620;52.340;5.984;2023-08-31T09:41:31;15.92;86.60
47861;HTU21D;33620;52.340;5.984;2023-08-31T09:44:14;15.93;87.08
47861;HTU21D;33620;52.340;5.984;2023-08-31T09:46:40;15.86;87.16
47861;HTU21D;33620;52.340;5.984;2023-08-31T09:49:06;15.82;88.01
47861;HTU21D;33620;52.340;5.984;2023-08-31T09:51:33;15.84;88.13
47861;HTU21D;33620;52.340;5.984;2023-08-31T09:54:02;15.86;88.64
47861;HTU21D;33620;52.340;5.984;2023-08-31T09:56:32;15.93;88.81
47861;HTU21D;33620;52.340;5.984;2023-08-31T09:58:58;15.96;88.89
47861;HTU21D;33620;52.340;5.984;2023-08-31T10:01:24;16.06;89.00
47861;HTU21D;33620;52.340;5.984;2023-08-31T10:03:50;16.13;88.96
47861;HTU21D;33620;52.340;5.984;2023-08-31T10:06:16;16.18;88.72
47861;HTU21D;33620;52.340;5.984;2023-08-31T10:08:42;16.22;89.12
47861;HTU21D;33620;52.340;5.984;2023-08-31T10:11:08;16.17;88.15
47861;HTU21D;33620;52.340;5.984;2023-08-31T10:13:38;16.13;88.32
47861;HTU21D;33620;52.340;5.984;2023-08-31T10:16:06;16.04;87.70
47861;HTU21D;33620;52.340;5.984;2023-08-31T10:18:34;15.96;87.51
47861;HTU21D;33620;52.340;5.984;2023-08-31T10:21:01;15.81;86.93
47861;HTU21D;33620;52.340;5.984;2023-08-31T10:23:28;15.70;87.01
47861;HTU21D;33620;52.340;5.984;2023-08-31T10:28:23;15.65;87.15
47861;HTU21D;33620;52.340;5.984;2023-08-31T10:31:09;15.59;88.08
47861;HTU21D;33620;52.340;5.984;2023-08-31T10:33:39;15.61;88.78
47861;HTU21D;33620;52.340;5.984;2023-08-31T10:36:13;15.70;88.94
47861;HTU21D;33620;52.340;5.984;2023-08-31T10:38:39;15.78;89.37
47861;HTU21D;33620;52.340;5.984;2023-08-31T10:51:38;16.61;86.95
47861;HTU21D;33620;52.340;5.984;2023-08-31T10:54:21;16.78;87.26
47861;HTU21D;33620;52.340;5.984;2023-08-31T10:56:54;16.86;83.26
47861;HTU21D;33620;52.340;5.984;2023-08-31T10:59:21;16.98;84.25
47861;HTU21D;33620;52.340;5.984;2023-08-31T11:01:57;16.98;83.88
47861;HTU21D;33620;52.340;5.984;2023-08-31T11:04:26;16.99;82.60
47861;HTU21D;33620;52.340;5.984;2023-08-31T11:07:14;17.17;83.14
47861;HTU21D;33620;52.340;5.984;2023-08-31T11:09:41;17.35;81.40
47861;HTU21D;33620;52.340;5.984;2023-08-31T11:12:06;17.50;79.90
47861;HTU21D;33620;52.340;5.984;2023-08-31T11:14:32;17.69;80.77
47861;HTU21D;33620;52.340;5.984;2023-08-31T11:16:59;17.74;77.17
47861;HTU21D;33620;52.340;5.984;2023-08-31T11:19:25;17.81;78.08
47861;HTU21D;33620;52.340;5.984;2023-08-31T11:21:51;17.94;77.68
47861;HTU21D;33620;52.340;5.984;2023-08-31T11:24:17;18.14;78.85
47861;HTU21D;33620;52.340;5.984;2023-08-31T11:26:42;18.32;76.73
47861;HTU21D;33620;52.340;5.984;2023-08-31T11:29:08;18.47;75.07
47861;HTU21D;33620;52.340;5.984;2023-08-31T11:31:38;18.61;75.31
47861;HTU21D;33620;52.340;5.984;2023-08-31T11:34:11;18.73;74.27
47861;HTU21D;33620;52.340;5.984;2023-08-31T11:36:37;18.73;73.64
47861;HTU21D;33620;52.340;5.984;2023-08-31T11:39:03;18.32;74.09
47861;HTU21D;33620;52.340;5.984;2023-08-31T11:41:35;18.07;76.70
47861;HTU21D;33620;52.340;5.984;2023-08-31T11:44:03;17.89;78.57
47861;HTU21D;33620;52.340;5.984;2023-08-31T11:46:30;17.84;79.96
47861;HTU21D;33620;52.340;5.984;2023-08-31T11:48:56;17.67;78.56
47861;HTU21D;33620;52.340;5.984;2023-08-31T11:51:21;17.62;79.28
47861;HTU21D;33620;52.340;5.984;2023-08-31T11:53:47;17.73;81.12
47861;HTU21D;33620;52.340;5.984;2023-08-31T11:56:13;17.73;77.98
47861;HTU21D;33620;52.340;5.984;2023-08-31T11:58:42;17.89;78.75
47861;HTU21D;33620;52.340;5.984;2023-08-31T12:01:08;18.03;78.16
47861;HTU21D;33620;52.340;5.984;2023-08-31T12:03:44;18.17;76.27
47861;HTU21D;33620;52.340;5.984;2023-08-31T12:06:10;18.37;76.52
47861;HTU21D;33620;52.340;5.984;2023-08-31T12:08:36;18.50;76.04
47861;HTU21D;33620;52.340;5.984;2023-08-31T12:11:02;18.64;73.86
47861;HTU21D;33620;52.340;5.984;2023-08-31T12:13:27;18.67;71.75
47861;HTU21D;33620;52.340;5.984;2023-08-31T12:15:57;18.84;72.75
47861;HTU21D;33620;52.340;5.984;2023-08-31T12:18:23;18.94;68.94
47861;HTU21D;33620;52.340;5.984;2023-08-31T12:20:52;18.94;69.31
47861;HTU21D;33620;52.340;5.984;2023-08-31T12:23:18;18.92;71.67
47861;HTU21D;33620;52.340;5.984;2023-08-31T12:25:51;18.67;70.07
47861;HTU21D;33620;52.340;5.984;2023-08-31T12:28:20;18.59;73.09
47861;HTU21D;33620;52.340;5.984;2023-08-31T12:30:51;18.73;73.82
47861;HTU21D;33620;52.340;5.984;2023-08-31T12:33:17;18.83;74.31
47861;HTU21D;33620;52.340;5.984;2023-08-31T12:35:43;18.86;72.38
47861;HTU21D;33620;52.340;5.984;2023-08-31T12:38:09;18.93;74.24
47861;HTU21D;33620;52.340;5.984;2023-08-31T12:40:34;18.77;72.77
47861;HTU21D;33620;52.340;5.984;2023-08-31T12:43:00;18.74;72.34
47861;HTU21D;33620;52.340;5.984;2023-08-31T12:45:25;18.84;74.29
47861;HTU21D;33620;52.340;5.984;2023-08-31T12:47:50;18.76;72.42
47861;HTU21D;33620;52.340;5.984;2023-08-31T12:50:16;18.85;73.19
47861;HTU21D;33620;52.340;5.984;2023-08-31T12:52:43;18.86;73.49
47861;HTU21D;33620;52.340;5.984;2023-08-31T12:55:12;18.89;70.38
47861;HTU21D;33620;52.340;5.984;2023-08-31T12:57:37;18.89;69.49
47861;HTU21D;33620;52.340;5.984;2023-08-31T13:00:03;18.93;71.59
47861;HTU21D;33620;52.340;5.984;2023-08-31T13:02:30;18.78;71.50
47861;HTU21D;33620;52.340;5.984;2023-08-31T13:04:55;18.67;72.16
47861;HTU21D;33620;52.340;5.984;2023-08-31T13:07:21;18.57;73.33
47861;HTU21D;33620;52.340;5.984;2023-08-31T13:09:46;18.55;73.78
47861;HTU21D;33620;52.340;5.984;2023-08-31T13:12:12;18.62;75.19
47861;HTU21D;33620;52.340;5.984;2023-08-31T13:14:37;18.74;73.38
47861;HTU21D;33620;52.340;5.984;2023-08-31T13:17:04;18.85;72.78
47861;HTU21D;33620;52.340;5.984;2023-08-31T13:19:30;19.01;73.60
47861;HTU21D;33620;52.340;5.984;2023-08-31T13:21:56;19.07;70.93
47861;HTU21D;33620;52.340;5.984;2023-08-31T13:24:21;19.12;69.90
47861;HTU21D;33620;52.340;5.984;2023-08-31T13:26:46;18.99;68.76
47861;HTU21D;33620;52.340;5.984;2023-08-31T13:29:14;18.85;68.53
47861;HTU21D;33620;52.340;5.984;2023-08-31T13:31:39;18.82;67.82
47861;HTU21D;33620;52.340;5.984;2023-08-31T13:34:05;18.87;69.99
47861;HTU21D;33620;52.340;5.984;2023-08-31T13:36:33;18.99;67.39
47861;HTU21D;33620;52.340;5.984;2023-08-31T13:38:59;18.96;65.60
47861;HTU21D;33620;52.340;5.984;2023-08-31T13:41:24;18.80;65.27
47861;HTU21D;33620;52.340;5.984;2023-08-31T13:43:49;18.82;65.53
47861;HTU21D;33620;52.340;5.984;2023-08-31T13:46:15;18.82;64.01
47861;HTU21D;33620;52.340;5.984;2023-08-31T13:48:40;18.93;62.71
47861;HTU21D;33620;52.340;5.984;2023-08-31T13:51:05;19.11;63.19
47861;HTU21D;33620;52.340;5.984;2023-08-31T13:53:31;19.37;64.73
47861;HTU21D;33620;52.340;5.984;2023-08-31T13:55:56;19.45;60.99
47861;HTU21D;33620;52.340;5.984;2023-08-31T13:58:22;19.44;63.73
47861;HTU21D;33620;52.340;5.984;2023-08-31T14:00:47;19.42;64.41
47861;HTU21D;33620;52.340;5.984;2023-08-31T14:03:13;19.37;63.27
47861;HTU21D;33620;52.340;5.984;2023-08-31T14:05:38;19.26;63.30
47861;HTU21D;33620;52.340;5.984;2023-08-31T14:08:04;19.08;63.26
47861;HTU21D;33620;52.340;5.984;2023-08-31T14:10:31;18.97;63.27
47861;HTU21D;33620;52.340;5.984;2023-08-31T14:12:57;19.07;65.10
47861;HTU21D;33620;52.340;5.984;2023-08-31T14:15:23;19.26;64.35
47861;HTU21D;33620;52.340;5.984;2023-08-31T14:17:51;19.42;62.24
47861;HTU21D;33620;52.340;5.984;2023-08-31T14:20:18;19.66;61.76
47861;HTU21D;33620;52.340;5.984;2023-08-31T14:22:44;19.77;58.91
47861;HTU21D;33620;52.340;5.984;2023-08-31T14:25:11;19.82;59.19
47861;HTU21D;33620;52.340;5.984;2023-08-31T14:27:37;19.87;60.60
47861;HTU21D;33620;52.340;5.984;2023-08-31T14:30:03;19.98;59.83
47861;HTU21D;33620;52.340;5.984;2023-08-31T14:32:28;20.07;58.51
47861;HTU21D;33620;52.340;5.984;2023-08-31T14:34:54;20.03;59.43
47861;HTU21D;33620;52.340;5.984;2023-08-31T14:37:20;20.15;58.68
47861;HTU21D;33620;52.340;5.984;2023-08-31T14:39:45;20.06;59.22
47861;HTU21D;33620;52.340;5.984;2023-08-31T14:42:11;19.90;57.77
47861;HTU21D;33620;52.340;5.984;2023-08-31T14:44:36;19.67;58.85
47861;HTU21D;33620;52.340;5.984;2023-08-31T14:47:02;19.62;60.10
47861;HTU21D;33620;52.340;5.984;2023-08-31T14:49:28;19.68;59.66
47861;HTU21D;33620;52.340;5.984;2023-08-31T14:51:54;19.76;59.87
47861;HTU21D;33620;52.340;5.984;2023-08-31T14:54:19;19.86;57.35
47861;HTU21D;33620;52.340;5.984;2023-08-31T14:56:45;19.95;57.38
47861;HTU21D;33620;52.340;5.984;2023-08-31T14:59:10;20.03;56.67
47861;HTU21D;33620;52.340;5.984;2023-08-31T15:01:36;20.14;57.25
47861;HTU21D;33620;52.340;5.984;2023-08-31T15:04:01;20.21;53.75
47861;HTU21D;33620;52.340;5.984;2023-08-31T15:06:27;20.20;54.36
47861;HTU21D;33620;52.340;5.984;2023-08-31T15:08:54;20.17;53.02
47861;HTU21D;33620;52.340;5.984;2023-08-31T15:11:20;20.12;53.85
47861;HTU21D;33620;52.340;5.984;2023-08-31T15:13:45;20.21;53.12
47861;HTU21D;33620;52.340;5.984;2023-08-31T15:16:11;20.25;53.78
47861;HTU21D;33620;52.340;5.984;2023-08-31T15:18:36;20.29;53.52
47861;HTU21D;33620;52.340;5.984;2023-08-31T15:21:01;20.29;52.53
47861;HTU21D;33620;52.340;5.984;2023-08-31T15:23:27;20.27;51.93
47861;HTU21D;33620;52.340;5.984;2023-08-31T15:25:59;20.18;50.79
47861;HTU21D;33620;52.340;5.984;2023-08-31T15:28:25;20.28;53.89